Herman, Minnesota
Current Conditions -  °F | °C
As of 2:34 AM on Thursday 18 Dec 2014 (Local Time) from KY63 Reporting Station
Clear Clear  
Wind Chill:   Ceiling: Unl
Heat Index:   Visibility: 10mi
Dew Point:   Wind: 3mph
Humidity: 90%   Direction: 110°ESE
Pressure: 30.27"   Gusts: NA
Location:  45.81°N, 96.14°W
Report Text: KY63 180834Z AUTO 11003KT 10SM CLR M14/M15 A3027 RMK AO2 T11361149
Loading
Personal Weather Stations






























Interactive Weather Map New forecast layout! Learn more

10-Day Weather Forecast

Advertisements
Track Severe Weather on mobile